Time;durP1;ratioP1;P1;durP2;ratioP2;P2;SDS_P1;SDS_P2;PMS_P1;PMS_P2;Temp;Humidity;BMP_temperature;BMP_pressure;BME280_temperature;BME280_humidity;BME280_pressure;Samples;Min_cycle;Max_cycle;Signal;HPM_P1;HPM_P2
2023/07/31 00:01:04;;;;;;;46.40;10.32;;;17.60;99.90;;;;;;5041086;28;20044;-75
2023/07/31 00:03:30;;;;;;;51.55;10.57;;;17.60;99.90;;;;;;5052004;28;20017;-75
2023/07/31 00:05:56;;;;;;;46.95;9.70;;;17.60;99.90;;;;;;5049870;28;20052;-75
2023/07/31 00:08:22;;;;;;;44.72;10.20;;;17.60;99.90;;;;;;5041498;28;20013;-75
2023/07/31 00:10:50;;;;;;;50.08;11.18;;;17.60;99.90;;;;;;5050755;28;20033;-75
2023/07/31 00:13:16;;;;;;;47.90;10.38;;;17.60;99.90;;;;;;5048123;28;20072;-75
2023/07/31 00:15:42;;;;;;;54.65;10.32;;;17.60;99.90;;;;;;5051634;28;20479;-75
2023/07/31 00:18:07;;;;;;;45.95;10.38;;;17.60;99.90;;;;;;5047836;28;20037;-75
2023/07/31 00:20:33;;;;;;;44.13;10.27;;;17.60;99.90;;;;;;5051025;28;20383;-75
2023/07/31 00:22:58;;;;;;;46.47;10.38;;;17.60;99.90;;;;;;5051962;28;20021;-75
2023/07/31 00:25:24;;;;;;;48.83;10.52;;;17.60;99.90;;;;;;5051837;28;20062;-75
2023/07/31 00:27:50;;;;;;;52.22;11.13;;;17.60;99.90;;;;;;5051786;28;20017;-75
2023/07/31 00:30:16;;;;;;;51.10;10.90;;;17.50;99.90;;;;;;5052438;28;20047;-75
2023/07/31 00:32:41;;;;;;;44.30;10.02;;;17.50;99.90;;;;;;5044941;28;20013;-75
2023/07/31 00:35:07;;;;;;;43.78;10.30;;;17.50;99.90;;;;;;5068857;28;20008;-75
2023/07/31 00:37:33;;;;;;;38.78;10.52;;;17.50;99.90;;;;;;5055977;28;20053;-74
2023/07/31 00:39:58;;;;;;;46.65;10.20;;;17.60;99.90;;;;;;5052737;28;20193;-75
2023/07/31 00:42:25;;;;;;;39.88;10.48;;;17.50;99.90;;;;;;5051355;28;20353;-76
2023/07/31 00:44:50;;;;;;;50.10;11.05;;;17.50;99.90;;;;;;5050846;28;20400;-74
2023/07/31 00:47:16;;;;;;;46.30;10.85;;;17.50;99.90;;;;;;5047660;28;20017;-74
2023/07/31 00:49:42;;;;;;;51.83;11.27;;;17.50;99.90;;;;;;5051313;28;20192;-74
2023/07/31 00:52:09;;;;;;;44.47;10.23;;;17.50;99.90;;;;;;5038117;28;20095;-74
2023/07/31 00:54:34;;;;;;;34.55;9.07;;;17.50;99.90;;;;;;5051079;28;20029;-74
2023/07/31 00:57:00;;;;;;;34.83;9.30;;;17.50;99.90;;;;;;5041343;28;20031;-74
2023/07/31 00:59:26;;;;;;;36.58;9.50;;;17.40;99.90;;;;;;5046789;28;20400;-74
2023/07/31 01:01:51;;;;;;;44.47;9.68;;;17.50;99.90;;;;;;5039543;28;20025;-74
2023/07/31 01:04:18;;;;;;;36.80;8.45;;;17.40;99.90;;;;;;5044292;28;20037;-74
2023/07/31 01:07:27;;;;;;;28.33;7.47;;;17.40;99.90;;;;;;5051049;28;20013;-75
2023/07/31 01:10:07;;;;;;;26.95;6.90;;;17.40;99.90;;;;;;5064134;28;20077;-75
2023/07/31 01:12:34;;;;;;;26.85;8.18;;;17.30;99.90;;;;;;5053263;28;20122;-75
2023/07/31 01:15:03;;;;;;;35.05;8.40;;;17.30;99.90;;;;;;5049295;28;20060;-75
2023/07/31 01:17:28;;;;;;;33.40;8.55;;;17.20;99.90;;;;;;5051024;28;20036;-75
2023/07/31 01:19:59;;;;;;;37.22;8.70;;;17.20;99.90;;;;;;5050905;28;20261;-74
2023/07/31 01:22:55;;;;;;;39.13;10.18;;;17.20;99.90;;;;;;5051298;28;20059;-74
2023/07/31 01:25:21;;;;;;;49.72;10.80;;;17.30;99.90;;;;;;5041018;28;20025;-75
2023/07/31 01:28:10;;;;;;;53.42;10.70;;;17.30;99.90;;;;;;5039691;28;20491;-75
2023/07/31 01:30:43;;;;;;;38.30;10.40;;;17.30;99.90;;;;;;5044259;28;20464;-75
2023/07/31 01:33:09;;;;;;;44.53;10.77;;;17.40;99.90;;;;;;5050503;28;20017;-75
2023/07/31 01:35:36;;;;;;;49.05;10.68;;;17.40;99.90;;;;;;5054880;28;20502;-75
2023/07/31 01:38:02;;;;;;;40.33;9.88;;;17.40;99.90;;;;;;5048302;28;20028;-75
2023/07/31 01:40:27;;;;;;;45.00;10.15;;;17.40;99.90;;;;;;5054540;28;20029;-75
2023/07/31 01:42:53;;;;;;;44.35;9.80;;;17.50;99.90;;;;;;5055561;28;20021;-74
2023/07/31 01:45:19;;;;;;;44.97;9.48;;;17.40;99.90;;;;;;5054481;28;20029;-75
2023/07/31 01:47:45;;;;;;;39.95;9.55;;;17.50;99.90;;;;;;5055316;28;20028;-75
2023/07/31 01:50:11;;;;;;;36.97;9.93;;;17.50;99.90;;;;;;5043347;28;20030;-75
2023/07/31 01:52:36;;;;;;;42.00;9.68;;;17.50;99.90;;;;;;5054908;28;20025;-75
2023/07/31 01:55:02;;;;;;;45.80;9.65;;;17.50;99.90;;;;;;5054169;28;20117;-75
2023/07/31 01:57:28;;;;;;;39.08;9.73;;;17.50;99.90;;;;;;5054971;28;20021;-75
2023/07/31 01:59:53;;;;;;;45.75;11.23;;;17.50;99.90;;;;;;5054358;28;20063;-74
2023/07/31 02:02:20;;;;;;;46.17;10.32;;;17.50;99.90;;;;;;5054606;28;20013;-75
2023/07/31 02:04:46;;;;;;;42.53;10.48;;;17.50;99.90;;;;;;5040350;28;20021;-75
2023/07/31 02:07:12;;;;;;;49.30;10.73;;;17.50;99.90;;;;;;5054927;28;20021;-74
2023/07/31 02:09:37;;;;;;;43.10;10.85;;;17.50;99.90;;;;;;5054869;28;20051;-75
2023/07/31 02:12:03;;;;;;;50.75;11.00;;;17.50;99.90;;;;;;5048546;28;20025;-74
2023/07/31 02:14:29;;;;;;;43.53;10.48;;;17.50;99.90;;;;;;5047400;28;20024;-74
2023/07/31 02:16:55;;;;;;;48.90;11.48;;;17.50;99.90;;;;;;5036796;28;20389;-75
2023/07/31 02:19:20;;;;;;;44.70;11.18;;;17.50;99.90;;;;;;5047011;28;20032;-74
2023/07/31 02:21:46;;;;;;;47.85;11.27;;;17.50;99.90;;;;;;5052808;28;20102;-74
2023/07/31 02:24:11;;;;;;;50.20;11.05;;;17.50;99.90;;;;;;5047261;28;20017;-74
2023/07/31 02:26:37;;;;;;;42.03;10.73;;;17.50;99.90;;;;;;5046353;28;20060;-74
2023/07/31 02:29:03;;;;;;;44.55;10.50;;;17.50;99.90;;;;;;5053504;28;20024;-75
2023/07/31 02:31:29;;;;;;;45.55;10.80;;;17.50;99.90;;;;;;5054080;28;20049;-74
2023/07/31 02:33:54;;;;;;;35.85;11.23;;;17.50;99.90;;;;;;5039039;28;20025;-74
2023/07/31 02:36:20;;;;;;;46.10;10.82;;;17.50;99.90;;;;;;5046424;28;20024;-74
2023/07/31 02:38:45;;;;;;;39.72;10.18;;;17.40;99.90;;;;;;5053863;28;20021;-74
2023/07/31 02:41:11;;;;;;;36.38;9.10;;;17.50;99.90;;;;;;5053558;28;20078;-74
2023/07/31 02:43:37;;;;;;;38.47;8.55;;;17.40;99.90;;;;;;5052807;28;20021;-75
2023/07/31 02:46:02;;;;;;;36.28;8.45;;;17.40;99.90;;;;;;5046466;28;20527;-75
2023/07/31 02:48:28;;;;;;;39.85;8.75;;;17.40;99.90;;;;;;5052550;28;20028;-75
2023/07/31 02:50:54;;;;;;;37.58;8.77;;;17.40;99.90;;;;;;5050269;28;20500;-75
2023/07/31 02:53:19;;;;;;;34.30;8.07;;;17.40;99.90;;;;;;5046050;28;20036;-75
2023/07/31 02:55:45;;;;;;;33.63;8.45;;;17.30;99.90;;;;;;5052888;28;20023;-74
2023/07/31 02:58:11;;;;;;;43.40;9.70;;;17.40;99.90;;;;;;5046597;28;20170;-75
2023/07/31 03:00:42;;;;;;;36.80;8.85;;;17.40;99.90;;;;;;5053701;28;20036;-75
2023/07/31 03:03:08;;;;;;;40.40;9.05;;;17.40;99.90;;;;;;5053798;28;20021;-75
2023/07/31 03:05:33;;;;;;;42.38;9.60;;;17.30;99.90;;;;;;5051788;28;20423;-74
2023/07/31 03:07:59;;;;;;;38.67;8.95;;;17.40;99.90;;;;;;5051589;28;20477;-75
2023/07/31 03:10:24;;;;;;;38.67;9.50;;;17.40;99.90;;;;;;5053039;28;20025;-74
2023/07/31 03:12:50;;;;;;;41.45;8.85;;;17.40;99.90;;;;;;5052599;28;20075;-74
2023/07/31 03:15:16;;;;;;;36.22;8.20;;;17.40;99.90;;;;;;5053394;28;20344;-74
2023/07/31 03:17:41;;;;;;;37.53;9.38;;;17.40;99.90;;;;;;5051822;28;20048;-74
2023/07/31 03:20:08;;;;;;;37.22;9.10;;;17.40;99.90;;;;;;5052740;28;20021;-74
2023/07/31 03:22:35;;;;;;;39.08;9.13;;;17.50;99.90;;;;;;5052924;28;20042;-74
2023/07/31 03:25:01;;;;;;;36.05;9.02;;;17.50;99.90;;;;;;5053716;28;20032;-74
2023/07/31 03:27:27;;;;;;;41.08;9.15;;;17.50;99.90;;;;;;5048428;28;20040;-74
2023/07/31 03:29:52;;;;;;;37.13;8.70;;;17.50;99.90;;;;;;5069667;28;20044;-74
2023/07/31 03:32:18;;;;;;;34.15;8.48;;;17.50;99.90;;;;;;5066947;28;20021;-75
2023/07/31 03:34:43;;;;;;;34.15;8.30;;;17.50;99.90;;;;;;5055100;28;20252;-75
2023/07/31 03:37:09;;;;;;;33.38;9.25;;;17.50;99.90;;;;;;5051625;28;20025;-75
2023/07/31 03:39:35;;;;;;;37.25;8.38;;;17.50;99.90;;;;;;5052643;28;20036;-74
2023/07/31 03:42:01;;;;;;;36.88;8.20;;;17.50;99.90;;;;;;5052159;28;20021;-74
2023/07/31 03:44:26;;;;;;;37.30;8.75;;;17.50;99.90;;;;;;5051400;28;20027;-75
2023/07/31 03:46:52;;;;;;;27.63;7.25;;;17.40;99.90;;;;;;5051770;28;20049;-75
2023/07/31 03:49:17;;;;;;;22.58;6.80;;;17.40;99.90;;;;;;5051963;28;20017;-75
2023/07/31 03:51:43;;;;;;;31.52;7.20;;;17.40;99.90;;;;;;5052470;28;20357;-75
2023/07/31 03:54:09;;;;;;;28.15;7.07;;;17.40;99.90;;;;;;5052303;28;20027;-75
2023/07/31 03:56:34;;;;;;;29.80;7.10;;;17.30;99.90;;;;;;5052963;28;20021;-74
2023/07/31 03:59:00;;;;;;;23.30;5.82;;;17.30;99.90;;;;;;5049447;28;20056;-74
2023/07/31 04:01:26;;;;;;;20.42;5.50;;;17.30;99.90;;;;;;5044881;28;20067;-74
2023/07/31 04:03:52;;;;;;;17.60;5.03;;;17.20;99.90;;;;;;5048505;28;20083;-75
2023/07/31 04:06:18;;;;;;;16.25;4.70;;;17.20;99.90;;;;;;5049084;28;20427;-75
2023/07/31 04:08:45;;;;;;;21.63;4.82;;;17.20;99.90;;;;;;5042449;28;20025;-74
2023/07/31 04:11:11;;;;;;;10.80;3.63;;;17.20;99.90;;;;;;5049839;28;20483;-74
2023/07/31 04:13:37;;;;;;;12.27;4.18;;;17.10;99.90;;;;;;5043565;28;20091;-75
2023/07/31 04:16:03;;;;;;;12.55;3.95;;;17.10;99.90;;;;;;5051964;28;20464;-75
2023/07/31 04:18:30;;;;;;;12.43;3.83;;;17.10;99.90;;;;;;5051997;28;20017;-75
2023/07/31 04:20:58;;;;;;;10.23;3.85;;;17.10;99.90;;;;;;5051877;28;20044;-75
2023/07/31 04:23:24;;;;;;;8.88;3.20;;;17.10;99.90;;;;;;5048211;28;20025;-75
2023/07/31 04:25:49;;;;;;;11.02;3.35;;;17.10;99.90;;;;;;5051307;28;20468;-75
2023/07/31 04:28:15;;;;;;;11.70;3.72;;;17.00;99.90;;;;;;5049942;28;20126;-75
2023/07/31 04:30:41;;;;;;;14.77;3.80;;;17.10;99.90;;;;;;5039113;28;20021;-75
2023/07/31 04:33:06;;;;;;;11.68;3.85;;;17.10;99.90;;;;;;5051350;28;20078;-75
2023/07/31 04:35:32;;;;;;;8.77;3.50;;;17.00;99.90;;;;;;5038647;28;20020;-75
2023/07/31 04:37:58;;;;;;;9.13;3.75;;;17.00;99.90;;;;;;5040036;28;20484;-75
2023/07/31 04:40:23;;;;;;;6.75;3.30;;;17.00;99.90;;;;;;5051126;28;20380;-75
2023/07/31 04:42:49;;;;;;;7.55;3.65;;;16.90;99.90;;;;;;5050890;28;20044;-75
2023/07/31 04:45:15;;;;;;;9.63;4.18;;;16.90;99.90;;;;;;5051208;28;20028;-75
2023/07/31 04:47:40;;;;;;;10.07;4.40;;;16.90;99.90;;;;;;5050010;28;20036;-76
2023/07/31 04:50:06;;;;;;;10.02;4.25;;;16.80;99.90;;;;;;5051209;28;20100;-76
2023/07/31 04:52:32;;;;;;;13.10;5.15;;;16.80;99.90;;;;;;5045234;28;20021;-76
2023/07/31 04:54:58;;;;;;;11.35;5.15;;;16.80;99.90;;;;;;5032165;28;20036;-76
2023/07/31 04:57:23;;;;;;;14.55;5.43;;;16.70;99.90;;;;;;5050713;28;20053;-76
2023/07/31 04:59:49;;;;;;;11.70;5.35;;;16.70;99.90;;;;;;5049657;28;20136;-75
2023/07/31 05:02:15;;;;;;;15.75;5.78;;;16.70;99.90;;;;;;5050785;28;20013;-75
2023/07/31 05:04:40;;;;;;;13.35;5.60;;;16.70;99.90;;;;;;5050613;28;20017;-76
2023/07/31 05:07:06;;;;;;;13.63;5.40;;;16.70;99.90;;;;;;5041507;28;20037;-76
2023/07/31 05:09:32;;;;;;;12.52;5.40;;;16.70;99.90;;;;;;5048485;28;20025;-75
2023/07/31 05:11:57;;;;;;;11.65;5.03;;;16.70;99.90;;;;;;5051302;28;20033;-75
2023/07/31 05:14:23;;;;;;;12.82;5.50;;;16.70;99.90;;;;;;5046718;28;20021;-75
2023/07/31 05:16:49;;;;;;;12.45;4.80;;;16.70;99.90;;;;;;5050752;28;20237;-75
2023/07/31 05:19:14;;;;;;;11.80;4.68;;;16.70;99.90;;;;;;5050749;28;20361;-75
2023/07/31 05:21:40;;;;;;;11.10;4.43;;;16.70;99.90;;;;;;5051156;28;20040;-75
2023/07/31 05:24:06;;;;;;;10.07;4.25;;;16.70;99.90;;;;;;5050666;28;20494;-75
2023/07/31 05:26:32;;;;;;;10.35;4.47;;;16.70;99.90;;;;;;5048988;28;20024;-76
2023/07/31 05:28:58;;;;;;;10.32;4.50;;;16.70;99.90;;;;;;5047983;28;20468;-76
2023/07/31 05:31:24;;;;;;;11.10;4.63;;;16.70;99.90;;;;;;5051109;28;20077;-76
2023/07/31 05:33:50;;;;;;;11.25;4.38;;;16.70;99.90;;;;;;5047082;28;20016;-75
2023/07/31 05:36:16;;;;;;;11.88;4.95;;;16.70;99.90;;;;;;5051163;28;20044;-75
2023/07/31 05:38:44;;;;;;;9.95;4.80;;;16.70;99.90;;;;;;5050988;28;20067;-76
2023/07/31 05:41:10;;;;;;;9.80;4.18;;;16.70;99.90;;;;;;5040159;28;20033;-76
2023/07/31 05:43:36;;;;;;;6.18;3.80;;;16.70;99.90;;;;;;5045375;28;20023;-76
2023/07/31 05:46:02;;;;;;;10.02;4.78;;;16.80;99.90;;;;;;5040688;28;20025;-76
2023/07/31 05:48:27;;;;;;;7.43;4.07;;;16.80;99.90;;;;;;5049988;28;20018;-76
2023/07/31 05:50:53;;;;;;;10.55;4.70;;;16.70;99.90;;;;;;5050169;28;20044;-75
2023/07/31 05:53:19;;;;;;;7.30;3.92;;;16.80;99.90;;;;;;5049769;28;20096;-75
2023/07/31 05:55:44;;;;;;;7.15;3.25;;;16.80;99.90;;;;;;5049455;28;20395;-75
2023/07/31 05:58:10;;;;;;;6.65;3.50;;;16.80;99.90;;;;;;5040250;28;20055;-75
2023/07/31 06:00:36;;;;;;;6.30;3.28;;;16.80;99.90;;;;;;5048601;28;20059;-76
2023/07/31 06:03:01;;;;;;;6.93;3.60;;;16.80;99.90;;;;;;5048467;28;20033;-76
2023/07/31 06:05:29;;;;;;;5.75;3.13;;;16.90;99.90;;;;;;5049693;28;20113;-75
2023/07/31 06:07:55;;;;;;;4.57;2.90;;;16.90;99.90;;;;;;5049686;28;20071;-75
2023/07/31 06:10:21;;;;;;;8.60;3.00;;;16.90;99.90;;;;;;5049763;28;20025;-76
2023/07/31 06:12:46;;;;;;;4.95;2.60;;;16.90;99.90;;;;;;5039948;28;20024;-76
2023/07/31 06:15:12;;;;;;;6.78;2.67;;;16.90;99.90;;;;;;5034913;28;20014;-76
2023/07/31 06:17:38;;;;;;;3.00;2.20;;;16.90;99.90;;;;;;5047721;28;20325;-75
2023/07/31 06:20:07;;;;;;;4.75;2.30;;;17.00;99.90;;;;;;5041371;28;20033;-75
2023/07/31 06:22:33;;;;;;;7.07;2.35;;;17.00;99.90;;;;;;5047234;28;20020;-75
2023/07/31 06:24:58;;;;;;;3.58;1.75;;;17.00;99.90;;;;;;5063199;28;20017;-75
2023/07/31 06:27:24;;;;;;;3.35;1.75;;;17.00;99.90;;;;;;5067065;28;20059;-75
2023/07/31 06:29:50;;;;;;;3.78;2.03;;;17.10;99.90;;;;;;5056296;28;20056;-75
2023/07/31 06:32:15;;;;;;;4.05;2.70;;;17.10;99.90;;;;;;5052776;28;20017;-75
2023/07/31 06:34:41;;;;;;;4.70;2.67;;;17.10;99.90;;;;;;5053259;28;20075;-75
2023/07/31 06:37:06;;;;;;;4.15;2.67;;;17.10;99.90;;;;;;5052426;28;20013;-76
2023/07/31 06:39:32;;;;;;;4.28;2.50;;;17.10;99.90;;;;;;5052661;28;20035;-76
2023/07/31 06:41:58;;;;;;;3.90;2.15;;;17.10;99.90;;;;;;5050010;28;20048;-75
2023/07/31 06:44:23;;;;;;;3.78;2.33;;;17.10;99.90;;;;;;5044628;28;20017;-75
2023/07/31 06:46:49;;;;;;;3.53;2.13;;;17.10;99.90;;;;;;5052581;28;20025;-75
2023/07/31 06:49:17;;;;;;;3.35;1.88;;;17.10;99.90;;;;;;5051676;28;20021;-76
2023/07/31 06:51:44;;;;;;;2.58;1.90;;;17.10;99.90;;;;;;5052706;28;20025;-75
2023/07/31 06:54:09;;;;;;;1.95;1.65;;;17.20;99.90;;;;;;5047590;28;20087;-75
2023/07/31 06:56:35;;;;;;;3.70;1.58;;;17.20;99.90;;;;;;5034756;28;20484;-75
2023/07/31 06:59:01;;;;;;;2.58;1.48;;;17.20;99.90;;;;;;5038593;28;20049;-75
2023/07/31 07:01:28;;;;;;;2.35;1.40;;;17.20;99.90;;;;;;5041588;28;20029;-76
2023/07/31 07:03:54;;;;;;;2.88;1.50;;;17.20;99.90;;;;;;5052747;28;20017;-75
2023/07/31 07:06:19;;;;;;;2.78;1.50;;;17.20;99.90;;;;;;5049239;28;20032;-75
2023/07/31 07:08:45;;;;;;;3.60;1.45;;;17.30;99.90;;;;;;5043820;28;20380;-76
2023/07/31 07:11:11;;;;;;;2.30;1.27;;;17.30;99.90;;;;;;5040878;28;20021;-76
2023/07/31 07:13:36;;;;;;;3.13;1.17;;;17.30;99.90;;;;;;5044103;28;20031;-76
2023/07/31 07:16:02;;;;;;;1.98;1.10;;;17.30;99.90;;;;;;5051652;28;20025;-76
2023/07/31 07:18:28;;;;;;;2.55;1.20;;;17.30;99.90;;;;;;5047088;28;20055;-76
2023/07/31 07:20:54;;;;;;;1.92;1.23;;;17.30;99.90;;;;;;5049333;28;20047;-76
2023/07/31 07:23:20;;;;;;;2.35;1.20;;;17.30;99.90;;;;;;5051768;28;20439;-76
2023/07/31 07:25:47;;;;;;;2.60;1.20;;;17.30;99.90;;;;;;5052112;28;20297;-76
2023/07/31 07:28:13;;;;;;;2.25;1.10;;;17.40;99.90;;;;;;5051909;28;20375;-76
2023/07/31 07:30:39;;;;;;;1.50;1.10;;;17.40;99.90;;;;;;5050639;28;20028;-76
2023/07/31 07:33:05;;;;;;;2.63;1.30;;;17.40;99.90;;;;;;5052072;28;20021;-75
2023/07/31 07:35:34;;;;;;;2.05;1.23;;;17.40;99.90;;;;;;5051641;28;20017;-76
2023/07/31 07:38:02;;;;;;;2.05;1.10;;;17.50;99.90;;;;;;5051913;28;20025;-76
2023/07/31 07:40:27;;;;;;;1.75;1.10;;;17.50;99.90;;;;;;5047661;28;20025;-76
2023/07/31 07:42:53;;;;;;;2.45;1.20;;;17.50;99.90;;;;;;5042743;28;20116;-76
2023/07/31 07:45:19;;;;;;;2.70;1.15;;;17.60;99.90;;;;;;5049984;28;20028;-76
2023/07/31 07:47:44;;;;;;;2.53;0.90;;;17.60;99.90;;;;;;5042035;28;20557;-76
2023/07/31 07:50:10;;;;;;;3.35;1.10;;;17.60;99.90;;;;;;5051853;28;20112;-76
2023/07/31 07:52:36;;;;;;;1.42;1.10;;;17.60;99.90;;;;;;5050730;28;20021;-76
2023/07/31 07:55:03;;;;;;;1.50;1.02;;;17.60;99.90;;;;;;5039583;28;20420;-76
2023/07/31 07:57:29;;;;;;;3.13;1.00;;;17.60;99.90;;;;;;5050797;28;20100;-76
2023/07/31 07:59:54;;;;;;;2.35;0.90;;;17.70;99.90;;;;;;5051250;28;20517;-76
2023/07/31 08:02:21;;;;;;;0.80;0.80;;;17.70;99.90;;;;;;5051017;28;20021;-76
2023/07/31 08:04:47;;;;;;;2.75;0.75;;;17.70;99.90;;;;;;5050995;28;20013;-76
2023/07/31 08:07:12;;;;;;;1.70;1.00;;;17.70;99.90;;;;;;5051246;28;20073;-76
2023/07/31 08:09:39;;;;;;;2.30;1.10;;;17.70;99.90;;;;;;5039533;28;20033;-76
2023/07/31 08:12:05;;;;;;;3.75;1.35;;;17.70;99.90;;;;;;5051220;28;20098;-76
2023/07/31 08:14:31;;;;;;;5.07;1.67;;;17.70;99.90;;;;;;5038572;28;20025;-76
2023/07/31 08:16:57;;;;;;;5.20;1.80;;;17.80;99.90;;;;;;5040704;28;20054;-76
2023/07/31 08:19:22;;;;;;;11.18;3.03;;;17.80;99.90;;;;;;5041213;28;20020;-76
2023/07/31 08:21:48;;;;;;;15.85;3.20;;;17.80;99.90;;;;;;5042062;28;20045;-76
2023/07/31 08:24:13;;;;;;;11.43;2.88;;;17.80;99.90;;;;;;5050894;28;20703;-76
2023/07/31 08:26:39;;;;;;;10.35;2.90;;;17.80;99.90;;;;;;5051294;28;20448;-76
2023/07/31 08:29:05;;;;;;;6.47;2.53;;;17.80;99.90;;;;;;5049316;28;20029;-76
2023/07/31 08:31:30;;;;;;;6.32;2.30;;;17.90;99.90;;;;;;5050930;28;20480;-76
2023/07/31 08:33:56;;;;;;;6.45;2.33;;;17.90;99.90;;;;;;5050757;28;20013;-76
2023/07/31 08:36:22;;;;;;;9.13;2.40;;;17.90;99.90;;;;;;5050906;28;20029;-76
2023/07/31 08:38:48;;;;;;;9.23;2.45;;;17.90;99.90;;;;;;5049293;28;20096;-76
2023/07/31 08:41:13;;;;;;;12.82;2.58;;;17.90;99.90;;;;;;5049986;28;20116;-76
2023/07/31 08:43:39;;;;;;;15.38;3.10;;;18.00;99.90;;;;;;5048256;28;20078;-76
2023/07/31 08:46:05;;;;;;;13.65;2.90;;;18.00;99.90;;;;;;5040773;28;20025;-76
2023/07/31 08:48:32;;;;;;;6.88;2.10;;;18.00;99.90;;;;;;5050576;28;20472;-76
2023/07/31 08:50:58;;;;;;;13.73;2.60;;;18.00;99.90;;;;;;5050489;28;20021;-76
2023/07/31 08:53:24;;;;;;;14.40;3.28;;;18.00;99.90;;;;;;5050942;28;20021;-76
2023/07/31 08:55:53;;;;;;;14.15;2.80;;;18.00;99.90;;;;;;5050502;28;20025;-76
2023/07/31 08:58:20;;;;;;;15.77;3.08;;;18.00;99.90;;;;;;5039363;28;20049;-76
2023/07/31 09:00:47;;;;;;;16.63;3.72;;;18.10;99.90;;;;;;5046668;28;20084;-76
2023/07/31 09:03:17;;;;;;;16.67;3.83;;;18.00;99.90;;;;;;5044211;28;20024;-76
2023/07/31 09:05:45;;;;;;;17.55;4.15;;;18.10;99.90;;;;;;5049993;28;20017;-76
2023/07/31 09:08:14;;;;;;;20.00;3.72;;;18.10;99.90;;;;;;5033788;28;20013;-76
2023/07/31 09:10:45;;;;;;;23.55;3.95;;;18.20;99.90;;;;;;5044277;28;20021;-76
2023/07/31 09:13:12;;;;;;;22.23;4.20;;;18.20;99.90;;;;;;5050380;28;20380;-76
2023/07/31 09:15:38;;;;;;;18.45;4.18;;;18.30;99.90;;;;;;5050064;28;20029;-75
2023/07/31 09:18:05;;;;;;;15.02;3.42;;;18.30;99.90;;;;;;5042814;28;20100;-75
2023/07/31 09:20:32;;;;;;;20.55;3.60;;;18.40;99.90;;;;;;5052252;28;20081;-76
2023/07/31 09:23:12;;;;;;;16.15;3.22;;;18.40;99.90;;;;;;5065955;28;20027;-75
2023/07/31 09:25:39;;;;;;;16.90;3.17;;;18.50;99.90;;;;;;5054617;28;20025;-75
2023/07/31 09:28:07;;;;;;;16.95;3.10;;;18.50;99.90;;;;;;5051760;28;20468;-75
2023/07/31 09:30:52;;;;;;;17.60;3.20;;;18.40;99.90;;;;;;5048685;28;20079;-75
2023/07/31 09:33:20;;;;;;;11.75;2.90;;;18.50;99.90;;;;;;5050435;28;20036;-75
2023/07/31 09:35:48;;;;;;;9.68;2.55;;;18.40;99.90;;;;;;5050157;28;20064;-75
2023/07/31 09:38:15;;;;;;;8.40;2.70;;;18.50;99.90;;;;;;5037367;28;20372;-75
2023/07/31 09:40:42;;;;;;;6.07;2.45;;;18.50;99.90;;;;;;5049779;28;20091;-75
2023/07/31 09:43:10;;;;;;;7.20;2.65;;;18.40;99.90;;;;;;5050155;28;20059;-75
2023/07/31 09:45:38;;;;;;;9.60;2.30;;;18.40;99.90;;;;;;5049825;28;20021;-75
2023/07/31 09:48:10;;;;;;;6.90;2.38;;;18.40;99.90;;;;;;5049966;28;20048;-76
2023/07/31 09:50:38;;;;;;;10.02;2.45;;;18.40;99.90;;;;;;5048854;28;20051;-75
2023/07/31 09:53:04;;;;;;;10.15;2.20;;;18.40;99.90;;;;;;5041450;28;20160;-75
2023/07/31 09:55:31;;;;;;;13.35;2.53;;;18.30;99.90;;;;;;5051196;28;20029;-75
2023/07/31 09:57:57;;;;;;;10.25;2.70;;;18.40;99.90;;;;;;5045523;28;20041;-75
2023/07/31 10:00:26;;;;;;;9.93;2.60;;;18.30;99.90;;;;;;5051002;28;20036;-76
2023/07/31 10:02:52;;;;;;;9.95;2.88;;;18.40;99.90;;;;;;5053762;28;20021;-75
2023/07/31 10:05:20;;;;;;;8.13;2.63;;;18.40;99.90;;;;;;5053885;28;20021;-75
2023/07/31 10:07:53;;;;;;;7.38;2.45;;;18.40;99.90;;;;;;5052496;28;20024;-75
2023/07/31 10:10:21;;;;;;;10.18;2.83;;;18.40;99.90;;;;;;5044676;28;20091;-75
2023/07/31 10:12:48;;;;;;;14.73;2.83;;;18.50;99.90;;;;;;5053433;28;20013;-75
2023/07/31 10:15:15;;;;;;;10.32;2.83;;;18.60;99.90;;;;;;5053381;28;20087;-75
2023/07/31 10:17:41;;;;;;;15.73;3.55;;;18.60;99.90;;;;;;5053196;28;20036;-75
2023/07/31 10:20:08;;;;;;;16.83;3.25;;;18.70;99.90;;;;;;5052861;28;20025;-75
2023/07/31 10:22:34;;;;;;;15.32;3.67;;;18.70;99.90;;;;;;5053223;28;20057;-75
2023/07/31 10:25:00;;;;;;;23.15;4.15;;;18.80;99.90;;;;;;5047897;28;20036;-75
2023/07/31 10:27:27;;;;;;;15.05;3.42;;;18.80;99.90;;;;;;5052586;28;20025;-75
2023/07/31 10:29:55;;;;;;;23.23;3.92;;;18.80;99.90;;;;;;5051580;28;20458;-75
2023/07/31 10:32:22;;;;;;;20.10;4.03;;;18.90;99.90;;;;;;5055341;28;20100;-75
2023/07/31 10:34:49;;;;;;;22.63;3.90;;;18.80;99.90;;;;;;5053878;28;20036;-74
2023/07/31 10:37:22;;;;;;;18.95;4.28;;;18.90;99.90;;;;;;5054311;28;20025;-75
2023/07/31 10:40:01;;;;;;;14.95;3.85;;;18.90;99.90;;;;;;5054069;28;20108;-75
2023/07/31 10:42:33;;;;;;;17.92;3.88;;;18.90;99.90;;;;;;5054378;28;20025;-75
2023/07/31 10:45:01;;;;;;;21.40;4.13;;;18.90;99.90;;;;;;5054199;28;20261;-75
2023/07/31 10:47:27;;;;;;;14.80;3.63;;;18.90;99.90;;;;;;5052366;28;20056;-75
2023/07/31 10:49:52;;;;;;;17.10;3.83;;;18.90;99.90;;;;;;5054646;28;20082;-75
2023/07/31 10:52:22;;;;;;;15.90;3.60;;;19.00;99.90;;;;;;5054565;28;20025;-74
2023/07/31 10:54:50;;;;;;;16.25;3.63;;;19.00;99.90;;;;;;5044490;28;20048;-74
2023/07/31 10:57:20;;;;;;;20.02;3.40;;;18.90;99.90;;;;;;5052592;28;20028;-74
2023/07/31 10:59:46;;;;;;;14.98;3.20;;;18.90;99.90;;;;;;5054105;28;20090;-74
2023/07/31 11:02:30;;;;;;;15.00;3.13;;;19.00;99.90;;;;;;5053090;28;20379;-75
2023/07/31 11:05:09;;;;;;;13.20;3.05;;;19.00;99.90;;;;;;5054020;28;20021;-74
2023/07/31 11:07:50;;;;;;;14.90;3.22;;;19.10;99.90;;;;;;5053869;28;20072;-75
2023/07/31 11:10:22;;;;;;;15.30;3.20;;;19.10;99.90;;;;;;5044017;28;20328;-74
2023/07/31 11:12:48;;;;;;;14.38;3.20;;;19.10;99.90;;;;;;5053872;28;20026;-75
2023/07/31 11:15:14;;;;;;;12.80;3.13;;;19.10;99.90;;;;;;5052584;28;20021;-75
2023/07/31 11:17:40;;;;;;;13.82;2.95;;;19.20;99.90;;;;;;5045365;28;20044;-74
2023/07/31 11:20:07;;;;;;;12.55;2.70;;;19.20;99.90;;;;;;5052871;28;20067;-74
2023/07/31 11:22:35;;;;;;;14.75;3.10;;;19.30;99.90;;;;;;5052199;28;20404;-74
2023/07/31 11:25:05;;;;;;;11.70;3.10;;;19.30;99.90;;;;;;5049483;28;20022;-74
2023/07/31 11:27:30;;;;;;;20.30;3.00;;;19.40;99.90;;;;;;5051671;28;20317;-74
2023/07/31 11:30:03;;;;;;;11.13;2.40;;;19.40;99.90;;;;;;5052012;28;20527;-74
2023/07/31 11:32:29;;;;;;;12.57;2.85;;;19.40;99.90;;;;;;5039288;28;20494;-74
2023/07/31 11:34:55;;;;;;;14.70;2.75;;;19.40;99.90;;;;;;5051852;28;20021;-74
2023/07/31 11:37:20;;;;;;;10.57;2.70;;;19.50;99.90;;;;;;5045662;28;20022;-74
2023/07/31 11:40:02;;;;;;;13.55;3.05;;;19.50;99.90;;;;;;5046000;28;20159;-74
2023/07/31 11:42:27;;;;;;;12.27;2.72;;;19.50;99.90;;;;;;5034342;28;20505;-74
2023/07/31 11:44:53;;;;;;;11.63;3.05;;;19.50;99.90;;;;;;5047383;28;20013;-74
2023/07/31 11:47:20;;;;;;;12.15;3.15;;;19.50;99.90;;;;;;5042271;28;20017;-74
2023/07/31 11:49:46;;;;;;;10.98;2.70;;;19.50;99.90;;;;;;5050544;28;20408;-74
2023/07/31 11:52:12;;;;;;;9.30;2.70;;;19.50;99.90;;;;;;5050946;28;20017;-74
2023/07/31 11:54:39;;;;;;;8.60;2.50;;;19.50;99.90;;;;;;5051713;28;20526;-74
2023/07/31 11:57:06;;;;;;;8.77;2.40;;;19.50;99.90;;;;;;5049474;28;20031;-74
2023/07/31 11:59:32;;;;;;;9.88;2.15;;;19.40;99.90;;;;;;5051143;28;20128;-74
2023/07/31 12:01:58;;;;;;;12.70;2.20;;;19.40;99.90;;;;;;5051485;28;20535;-74
2023/07/31 12:04:25;;;;;;;10.88;2.20;;;19.40;99.90;;;;;;5047405;28;20017;-74
2023/07/31 12:06:52;;;;;;;8.75;2.45;;;19.50;99.90;;;;;;5051420;28;20021;-74
2023/07/31 12:09:18;;;;;;;11.80;2.63;;;19.50;99.90;;;;;;5040394;28;20017;-74
2023/07/31 12:11:45;;;;;;;13.93;2.65;;;19.50;99.90;;;;;;5051172;28;20039;-74
2023/07/31 12:14:29;;;;;;;8.75;2.78;;;19.60;99.90;;;;;;5051995;28;20025;-74
2023/07/31 12:16:59;;;;;;;8.45;2.70;;;19.60;99.90;;;;;;5058407;28;20495;-74
2023/07/31 12:19:29;;;;;;;9.50;2.45;;;19.60;99.90;;;;;;5062844;28;20024;-74
2023/07/31 12:22:02;;;;;;;8.85;2.75;;;19.60;99.90;;;;;;5052390;28;20044;-74
2023/07/31 12:24:27;;;;;;;9.15;2.65;;;19.60;99.90;;;;;;5047135;28;20047;-74
2023/07/31 12:26:54;;;;;;;8.73;2.33;;;19.60;99.90;;;;;;5048386;28;20021;-74
2023/07/31 12:29:20;;;;;;;11.50;3.03;;;19.60;99.90;;;;;;5051009;28;20021;-74
2023/07/31 12:31:46;;;;;;;9.73;2.60;;;19.60;99.90;;;;;;5049633;28;20031;-74
2023/07/31 12:34:17;;;;;;;13.02;3.47;;;19.70;99.90;;;;;;5039288;28;20476;-74
2023/07/31 12:36:43;;;;;;;10.85;2.95;;;19.70;99.90;;;;;;5050483;28;20380;-74